Time;durP1;ratioP1;P1;durP2;ratioP2;P2;SDS_P1;SDS_P2;PMS_P1;PMS_P2;Temp;Humidity;BMP_temperature;BMP_pressure;BME280_temperature;BME280_humidity;BME280_pressure;Samples;Min_cycle;Max_cycle;Signal;HPM_P1;HPM_P2
2022/02/14 00:01:51;;;;;;;;;18.00;16.33;;;;;;;;5182912;27;12400;-76
2022/02/14 00:04:16;;;;;;;;;13.00;13.00;;;;;;;;5182666;27;11331;-75
2022/02/14 00:06:42;;;;;;;;;17.67;17.67;;;;;;;;5162580;27;12783;-75
2022/02/14 00:09:07;;;;;;;;;21.67;16.33;;;;;;;;5182292;27;12044;-76
2022/02/14 00:11:32;;;;;;;;;18.33;18.33;;;;;;;;5163096;27;16006;-76
2022/02/14 00:13:58;;;;;;;;;17.00;15.67;;;;;;;;5181983;27;12303;-76
2022/02/14 00:16:23;;;;;;;;;17.00;15.67;;;;;;;;5181826;27;11631;-76
2022/02/14 00:18:48;;;;;;;;;21.67;17.67;;;;;;;;5182379;27;8758;-76
2022/02/14 00:21:14;;;;;;;;;17.33;17.33;;;;;;;;5181375;27;12149;-76
2022/02/14 00:23:39;;;;;;;;;24.67;19.67;;;;;;;;5181417;27;13244;-76
2022/02/14 00:26:04;;;;;;;;;19.33;19.00;;;;;;;;5162922;27;13453;-76
2022/02/14 00:28:29;;;;;;;;;22.00;18.33;;;;;;;;5182340;27;13447;-76
2022/02/14 00:30:55;;;;;;;;;20.00;17.33;;;;;;;;5182753;27;13702;-76
2022/02/14 00:33:20;;;;;;;;;23.00;21.33;;;;;;;;5182579;27;9928;-74
2022/02/14 00:35:47;;;;;;;;;24.67;21.33;;;;;;;;5162586;27;11558;-75
2022/02/14 00:38:12;;;;;;;;;25.67;21.00;;;;;;;;5181749;27;9598;-75
2022/02/14 00:40:38;;;;;;;;;24.67;19.33;;;;;;;;5181351;27;11530;-76
2022/02/14 00:43:04;;;;;;;;;23.33;22.33;;;;;;;;5181569;27;13469;-75
2022/02/14 00:45:29;;;;;;;;;19.67;17.00;;;;;;;;5182167;27;11379;-75
2022/02/14 00:47:54;;;;;;;;;20.00;17.67;;;;;;;;5182199;27;14495;-74
2022/02/14 00:50:20;;;;;;;;;21.33;19.00;;;;;;;;5181972;27;13202;-75
2022/02/14 00:52:45;;;;;;;;;19.00;19.00;;;;;;;;5182212;27;11397;-76
2022/02/14 00:55:12;;;;;;;;;24.00;21.00;;;;;;;;5181915;27;10653;-76
2022/02/14 00:57:37;;;;;;;;;21.67;17.33;;;;;;;;5181846;27;10506;-75
2022/02/14 01:00:04;;;;;;;;;18.00;17.33;;;;;;;;5181282;27;12513;-76
2022/02/14 01:02:29;;;;;;;;;19.00;15.67;;;;;;;;5182119;27;10741;-76
2022/02/14 01:04:54;;;;;;;;;22.67;19.67;;;;;;;;5181860;27;11417;-75
2022/02/14 01:07:20;;;;;;;;;26.00;20.00;;;;;;;;5181756;27;12245;-75
2022/02/14 01:09:45;;;;;;;;;17.33;17.33;;;;;;;;5181711;27;12399;-76
2022/02/14 01:12:10;;;;;;;;;24.33;21.67;;;;;;;;5181539;27;13603;-76
2022/02/14 01:14:35;;;;;;;;;18.33;17.33;;;;;;;;5181541;27;13353;-76
2022/02/14 01:17:01;;;;;;;;;20.33;17.33;;;;;;;;5182742;27;13948;-76
2022/02/14 01:19:26;;;;;;;;;26.00;20.67;;;;;;;;5185465;27;9172;-76
2022/02/14 01:21:52;;;;;;;;;24.67;19.00;;;;;;;;5165883;27;14387;-75
2022/02/14 01:24:17;;;;;;;;;20.67;16.67;;;;;;;;5184794;27;12487;-77
2022/02/14 01:26:42;;;;;;;;;19.00;16.33;;;;;;;;5184430;27;11358;-75
2022/02/14 01:29:08;;;;;;;;;20.33;17.67;;;;;;;;5184710;27;13261;-75
2022/02/14 01:31:33;;;;;;;;;16.33;15.00;;;;;;;;5165908;27;13986;-75
2022/02/14 01:33:59;;;;;;;;;17.33;15.00;;;;;;;;5184955;27;13271;-75
2022/02/14 01:36:24;;;;;;;;;22.67;21.33;;;;;;;;5185401;27;9513;-75
2022/02/14 01:38:49;;;;;;;;;18.33;18.33;;;;;;;;5184918;27;13873;-76
2022/02/14 01:41:15;;;;;;;;;26.67;21.33;;;;;;;;5184739;27;12285;-75
2022/02/14 01:43:43;;;;;;;;;22.67;17.00;;;;;;;;5184712;27;12366;-74
2022/02/14 01:46:08;;;;;;;;;20.67;20.67;;;;;;;;5185156;27;12272;-75
2022/02/14 01:48:33;;;;;;;;;13.67;12.33;;;;;;;;5184833;27;12198;-74
2022/02/14 01:50:59;;;;;;;;;19.00;17.33;;;;;;;;5184819;27;13283;-74
2022/02/14 01:53:24;;;;;;;;;23.67;23.67;;;;;;;;5184683;27;10332;-74
2022/02/14 01:55:50;;;;;;;;;22.67;20.67;;;;;;;;5184332;27;13619;-74
2022/02/14 01:58:16;;;;;;;;;22.67;18.67;;;;;;;;5184550;27;8776;-74
2022/02/14 02:00:43;;;;;;;;;23.00;20.00;;;;;;;;5184109;27;8781;-74
2022/02/14 02:03:08;;;;;;;;;21.00;19.00;;;;;;;;5184338;27;12550;-74
2022/02/14 02:05:34;;;;;;;;;23.00;20.00;;;;;;;;5184717;27;9510;-74
2022/02/14 02:07:59;;;;;;;;;21.33;20.33;;;;;;;;5184147;27;9872;-73
2022/02/14 02:10:25;;;;;;;;;22.67;20.00;;;;;;;;5164981;27;13733;-73
2022/02/14 02:12:52;;;;;;;;;24.33;20.33;;;;;;;;5164645;27;14886;-74
2022/02/14 02:15:18;;;;;;;;;22.33;22.00;;;;;;;;5184224;27;12017;-74
2022/02/14 02:17:43;;;;;;;;;25.33;22.00;;;;;;;;5184787;27;12788;-75
2022/02/14 02:20:10;;;;;;;;;18.33;16.00;;;;;;;;5165135;27;9432;-74
2022/02/14 02:22:35;;;;;;;;;21.67;15.67;;;;;;;;5183743;27;10581;-74
2022/02/14 02:25:01;;;;;;;;;15.67;13.33;;;;;;;;5183891;27;13914;-75
2022/02/14 02:27:27;;;;;;;;;20.00;19.00;;;;;;;;5183458;27;13199;-75
2022/02/14 02:29:53;;;;;;;;;21.67;16.33;;;;;;;;5183118;27;13397;-74
2022/02/14 02:32:18;;;;;;;;;22.67;21.67;;;;;;;;5184069;27;11410;-74
2022/02/14 02:34:44;;;;;;;;;20.33;19.00;;;;;;;;5184369;27;13611;-74
2022/02/14 02:37:11;;;;;;;;;29.33;23.00;;;;;;;;5164358;27;12555;-73
2022/02/14 02:39:36;;;;;;;;;21.00;18.00;;;;;;;;5183763;27;9665;-73
2022/02/14 02:42:03;;;;;;;;;20.00;19.00;;;;;;;;5182916;27;11504;-73
2022/02/14 02:44:29;;;;;;;;;24.00;21.33;;;;;;;;5164424;27;9298;-74
2022/02/14 02:46:54;;;;;;;;;22.33;18.00;;;;;;;;5183251;27;12834;-74
2022/02/14 02:49:21;;;;;;;;;20.00;19.00;;;;;;;;5183202;27;12198;-74
2022/02/14 02:51:47;;;;;;;;;25.00;19.67;;;;;;;;5183040;27;11719;-74
2022/02/14 02:54:13;;;;;;;;;19.33;15.33;;;;;;;;5183667;27;11649;-74
2022/02/14 02:56:40;;;;;;;;;23.33;19.00;;;;;;;;5183330;27;13210;-73
2022/02/14 02:59:06;;;;;;;;;19.00;19.00;;;;;;;;5182813;27;13551;-73
2022/02/14 03:01:31;;;;;;;;;25.00;25.00;;;;;;;;5163468;27;10677;-72
2022/02/14 03:03:57;;;;;;;;;26.33;22.00;;;;;;;;5183808;27;10366;-73
2022/02/14 03:06:23;;;;;;;;;22.00;18.67;;;;;;;;5183035;27;10373;-74
2022/02/14 03:08:51;;;;;;;;;22.67;22.67;;;;;;;;5183369;27;12182;-74
2022/02/14 03:11:20;;;;;;;;;23.67;19.33;;;;;;;;5182628;27;11513;-74
2022/02/14 03:13:45;;;;;;;;;22.00;21.33;;;;;;;;5183242;27;12579;-74
2022/02/14 03:16:12;;;;;;;;;22.33;20.00;;;;;;;;5182605;27;11525;-74
2022/02/14 03:18:38;;;;;;;;;23.33;22.00;;;;;;;;5164104;27;12507;-73
2022/02/14 03:21:04;;;;;;;;;25.33;24.00;;;;;;;;5183325;27;9671;-73
2022/02/14 03:23:29;;;;;;;;;30.67;23.67;;;;;;;;5182687;27;8962;-73
2022/02/14 03:25:54;;;;;;;;;28.67;19.00;;;;;;;;5182581;27;13277;-73
2022/02/14 03:28:20;;;;;;;;;22.33;21.67;;;;;;;;5183018;27;13360;-73
2022/02/14 03:30:45;;;;;;;;;21.33;19.00;;;;;;;;5182627;27;12183;-73
2022/02/14 03:33:10;;;;;;;;;24.67;23.33;;;;;;;;5182409;27;12605;-73
2022/02/14 03:35:36;;;;;;;;;28.67;24.67;;;;;;;;5182278;27;13145;-74
2022/02/14 03:38:06;;;;;;;;;34.33;30.33;;;;;;;;5183028;27;12587;-72
2022/02/14 03:40:31;;;;;;;;;29.67;29.33;;;;;;;;5163003;27;13559;-75
2022/02/14 03:42:57;;;;;;;;;36.00;29.00;;;;;;;;5182923;27;12198;-73
2022/02/14 03:45:22;;;;;;;;;34.67;31.33;;;;;;;;5183155;27;13442;-74
2022/02/14 03:47:47;;;;;;;;;29.33;26.67;;;;;;;;5182843;27;12712;-74
2022/02/14 03:50:13;;;;;;;;;33.67;29.00;;;;;;;;5182571;27;13459;-74
2022/02/14 03:52:38;;;;;;;;;34.00;29.67;;;;;;;;5182358;27;13264;-73
2022/02/14 03:55:04;;;;;;;;;35.00;31.00;;;;;;;;5182168;27;11435;-73
2022/02/14 03:57:29;;;;;;;;;33.33;32.67;;;;;;;;5163129;27;14766;-73
2022/02/14 03:59:54;;;;;;;;;30.00;26.33;;;;;;;;5181686;27;11378;-73
2022/02/14 04:02:19;;;;;;;;;29.00;27.00;;;;;;;;5181969;27;12215;-74
2022/02/14 04:04:45;;;;;;;;;28.67;25.00;;;;;;;;5181791;27;13476;-73
2022/02/14 04:07:10;;;;;;;;;31.00;30.00;;;;;;;;5181687;27;10331;-74
2022/02/14 04:09:35;;;;;;;;;27.33;26.00;;;;;;;;5182593;27;12518;-74
2022/02/14 04:12:01;;;;;;;;;27.67;25.67;;;;;;;;5163416;27;12654;-74
2022/02/14 04:14:26;;;;;;;;;36.00;30.00;;;;;;;;5182075;27;10727;-74
2022/02/14 04:16:51;;;;;;;;;31.33;25.33;;;;;;;;5182384;27;13345;-74
2022/02/14 04:19:16;;;;;;;;;32.67;28.33;;;;;;;;5182154;27;12197;-73
2022/02/14 04:21:42;;;;;;;;;32.33;26.67;;;;;;;;5182113;27;10709;-74
2022/02/14 04:24:07;;;;;;;;;32.67;31.33;;;;;;;;5182380;27;10381;-74
2022/02/14 04:26:32;;;;;;;;;30.00;26.00;;;;;;;;5162855;27;12531;-74
2022/02/14 04:28:58;;;;;;;;;27.67;27.00;;;;;;;;5182165;27;12223;-73
2022/02/14 04:31:23;;;;;;;;;30.33;25.00;;;;;;;;5182036;27;13357;-75
2022/02/14 04:33:48;;;;;;;;;31.00;28.33;;;;;;;;5181864;27;12263;-74
2022/02/14 04:36:13;;;;;;;;;30.33;29.00;;;;;;;;5181587;27;11358;-73
2022/02/14 04:38:39;;;;;;;;;27.67;24.33;;;;;;;;5181152;27;11879;-74
2022/02/14 04:41:04;;;;;;;;;31.00;27.00;;;;;;;;5162001;27;16280;-73
2022/02/14 04:43:29;;;;;;;;;26.33;22.00;;;;;;;;5162088;27;15028;-73
2022/02/14 04:45:55;;;;;;;;;34.67;29.67;;;;;;;;5181290;27;12202;-73
2022/02/14 04:48:20;;;;;;;;;27.67;24.00;;;;;;;;5161910;27;13789;-72
2022/02/14 04:50:45;;;;;;;;;30.67;27.00;;;;;;;;5163068;27;15815;-72
2022/02/14 04:53:11;;;;;;;;;30.67;27.67;;;;;;;;5182308;27;10759;-73
2022/02/14 04:55:36;;;;;;;;;40.33;33.00;;;;;;;;5181767;27;9050;-73
2022/02/14 04:58:01;;;;;;;;;36.33;28.67;;;;;;;;5162597;27;15579;-73
2022/02/14 05:00:26;;;;;;;;;31.33;27.00;;;;;;;;5181741;27;13244;-74
2022/02/14 05:02:52;;;;;;;;;36.33;31.33;;;;;;;;5181524;27;11364;-75
2022/02/14 05:05:17;;;;;;;;;33.00;29.00;;;;;;;;5181545;27;13273;-74
2022/02/14 05:07:42;;;;;;;;;30.00;29.00;;;;;;;;5181173;27;12416;-73
2022/02/14 05:10:08;;;;;;;;;31.67;30.33;;;;;;;;5181066;27;8805;-74
2022/02/14 05:12:34;;;;;;;;;33.00;31.00;;;;;;;;5181055;27;12462;-72
2022/02/14 05:15:00;;;;;;;;;32.00;28.00;;;;;;;;5181546;27;11496;-73
2022/02/14 05:17:25;;;;;;;;;30.00;30.00;;;;;;;;5181412;27;9593;-74
2022/02/14 05:19:50;;;;;;;;;32.33;30.33;;;;;;;;5181954;27;10094;-79
2022/02/14 05:22:16;;;;;;;;;38.67;29.67;;;;;;;;5178058;27;11369;-75
2022/02/14 05:24:41;;;;;;;;;31.00;26.33;;;;;;;;5181365;27;12827;-72
2022/02/14 05:27:06;;;;;;;;;39.00;31.33;;;;;;;;5181507;27;11397;-73
2022/02/14 05:29:31;;;;;;;;;31.33;25.67;;;;;;;;5171798;27;9746;-72
2022/02/14 05:31:58;;;;;;;;;37.33;33.33;;;;;;;;5170231;27;12214;-72
2022/02/14 05:34:23;;;;;;;;;35.67;31.33;;;;;;;;5165499;27;12293;-72
2022/02/14 05:36:48;;;;;;;;;37.00;32.67;;;;;;;;5159580;27;10366;-72
2022/02/14 05:39:17;;;;;;;;;34.00;32.33;;;;;;;;5162054;27;11888;-72
2022/02/14 05:41:42;;;;;;;;;40.67;33.67;;;;;;;;5181065;27;11499;-72
2022/02/14 05:44:08;;;;;;;;;34.67;33.67;;;;;;;;5180589;27;13911;-72
2022/02/14 05:46:34;;;;;;;;;30.67;28.67;;;;;;;;5157216;27;10775;-72
2022/02/14 05:48:59;;;;;;;;;35.33;32.00;;;;;;;;5168592;27;9026;-73
2022/02/14 05:51:24;;;;;;;;;31.33;28.67;;;;;;;;5168678;27;12355;-74
2022/02/14 05:53:49;;;;;;;;;37.67;33.00;;;;;;;;5168794;27;12360;-77
2022/02/14 05:56:15;;;;;;;;;32.00;31.00;;;;;;;;5169282;27;12426;-76
2022/02/14 05:58:41;;;;;;;;;37.33;30.33;;;;;;;;5167803;27;10353;-77
2022/02/14 06:01:06;;;;;;;;;38.00;30.33;;;;;;;;5169528;27;11523;-75
2022/02/14 06:03:31;;;;;;;;;34.67;29.33;;;;;;;;5169805;27;9111;-75
2022/02/14 06:05:57;;;;;;;;;40.33;35.33;;;;;;;;5171075;27;11766;-74
2022/02/14 06:08:22;;;;;;;;;33.33;30.00;;;;;;;;5172805;27;12481;-73
2022/02/14 06:10:49;;;;;;;;;35.67;34.00;;;;;;;;5171088;27;13292;-73
2022/02/14 06:13:14;;;;;;;;;34.67;34.67;;;;;;;;5170963;27;10494;-73
2022/02/14 06:15:39;;;;;;;;;41.00;37.67;;;;;;;;5172756;27;11405;-72
2022/02/14 06:18:05;;;;;;;;;37.67;32.00;;;;;;;;5152002;27;12614;-73
2022/02/14 06:20:30;;;;;;;;;35.00;33.00;;;;;;;;5171991;27;13744;-75
2022/02/14 06:22:55;;;;;;;;;33.67;29.33;;;;;;;;5172365;27;10512;-77
2022/02/14 06:25:21;;;;;;;;;30.67;28.00;;;;;;;;5170903;27;12277;-74
2022/02/14 06:27:46;;;;;;;;;38.67;32.33;;;;;;;;5173162;27;12055;-75
2022/02/14 06:30:12;;;;;;;;;34.67;30.67;;;;;;;;5152779;27;12562;-73
2022/02/14 06:32:37;;;;;;;;;39.00;34.00;;;;;;;;5169088;27;11432;-84
2022/02/14 06:35:05;;;;;;;;;40.67;36.67;;;;;;;;5170657;27;12032;-74
2022/02/14 06:37:31;;;;;;;;;32.33;28.67;;;;;;;;5171149;27;13437;-76
2022/02/14 06:39:56;;;;;;;;;35.33;31.33;;;;;;;;5171809;27;12635;-75
2022/02/14 06:42:21;;;;;;;;;34.67;32.67;;;;;;;;5172131;27;13303;-76
2022/02/14 06:44:47;;;;;;;;;38.00;31.33;;;;;;;;5173670;27;11350;-79
2022/02/14 06:47:12;;;;;;;;;35.67;34.67;;;;;;;;5183509;27;11727;-77
2022/02/14 06:49:37;;;;;;;;;35.33;31.67;;;;;;;;5183045;27;11965;-78
2022/02/14 06:52:03;;;;;;;;;41.33;36.00;;;;;;;;5182591;27;10029;-76
2022/02/14 06:54:28;;;;;;;;;41.67;38.67;;;;;;;;5182624;27;13484;-76
2022/02/14 06:56:53;;;;;;;;;22.67;16.00;;;;;;;;5182785;27;10647;-77
2022/02/14 06:59:19;;;;;;;;;42.33;37.33;;;;;;;;5182966;27;13643;-76
2022/02/14 07:01:44;;;;;;;;;52.67;41.67;;;;;;;;5183033;27;13405;-76
2022/02/14 07:04:10;;;;;;;;;42.67;36.67;;;;;;;;5182276;27;13201;-79
2022/02/14 07:06:35;;;;;;;;;47.33;40.67;;;;;;;;5181691;27;11089;-76
2022/02/14 07:09:01;;;;;;;;;53.33;45.00;;;;;;;;5175178;27;11421;-75
2022/02/14 11:50:05;;;;;;;;;53.00;45.33;;;;;;;;5207946;27;78996;-71
2022/02/14 11:52:34;;;;;;;;;58.33;46.67;;;;;;;;5177579;27;24493;-72
2022/02/14 11:55:03;;;;;;;;;63.67;48.00;;;;;;;;5196998;27;11508;-74
2022/02/14 11:57:38;;;;;;;;;60.00;49.67;;;;;;;;5194524;27;14413;-72
2022/02/14 12:00:12;;;;;;;;;65.00;53.00;;;;;;;;5196507;27;12042;-73
2022/02/14 12:02:38;;;;;;;;;66.00;53.33;;;;;;;;5196977;27;13989;-73
2022/02/14 12:05:04;;;;;;;;;65.33;52.67;;;;;;;;5196210;27;11471;-73
2022/02/14 12:07:35;;;;;;;;;64.33;52.33;;;;;;;;5177000;27;11704;-73
2022/02/14 12:10:12;;;;;;;;;70.75;54.50;;;;;;;;5196915;27;12000;-77
2022/02/14 12:12:43;;;;;;;;;76.00;57.25;;;;;;;;5192344;27;13379;-73
2022/02/14 12:15:17;;;;;;;;;68.00;53.25;;;;;;;;5177027;27;14527;-73
2022/02/14 12:20:36;;;;;;;;;59.67;48.33;;;;;;;;5196727;27;10374;-74
2022/02/14 12:23:02;;;;;;;;;66.67;52.00;;;;;;;;5195110;27;12506;-73
2022/02/14 12:25:27;;;;;;;;;63.33;51.33;;;;;;;;5196471;27;13212;-74
2022/02/14 12:27:56;;;;;;;;;62.00;49.33;;;;;;;;5193294;27;11556;-74
2022/02/14 12:30:22;;;;;;;;;59.33;49.00;;;;;;;;5196161;27;11510;-74
2022/02/14 12:33:08;;;;;;;;;63.00;53.00;;;;;;;;5196400;27;13399;-75
2022/02/14 12:35:38;;;;;;;;;62.00;50.00;;;;;;;;5194772;27;12363;-75
2022/02/14 12:38:04;;;;;;;;;60.33;48.33;;;;;;;;5197198;27;8787;-74
2022/02/14 12:40:48;;;;;;;;;60.67;51.33;;;;;;;;5197045;27;12186;-74
2022/02/14 12:43:21;;;;;;;;;60.00;50.33;;;;;;;;5197141;27;11473;-73
2022/02/14 12:45:46;;;;;;;;;62.67;49.67;;;;;;;;5196673;27;9652;-75
2022/02/14 12:48:25;;;;;;;;;60.00;51.00;;;;;;;;5177455;27;15426;-73
2022/02/14 12:50:50;;;;;;;;;56.67;45.00;;;;;;;;5167037;27;14583;-74
2022/02/14 12:53:15;;;;;;;;;63.33;50.33;;;;;;;;5154478;27;14214;-73
2022/02/14 12:55:41;;;;;;;;;54.00;44.33;;;;;;;;5173749;27;13229;-73
2022/02/14 12:58:06;;;;;;;;;58.33;47.33;;;;;;;;5175632;27;12274;-74
2022/02/14 13:00:31;;;;;;;;;56.67;46.67;;;;;;;;5148365;27;11025;-73
2022/02/14 13:02:58;;;;;;;;;56.67;46.00;;;;;;;;5161616;27;11428;-72
2022/02/14 13:05:24;;;;;;;;;60.00;49.00;;;;;;;;5162780;27;8801;-72
2022/02/14 13:07:49;;;;;;;;;61.00;47.00;;;;;;;;5160138;27;12785;-73
2022/02/14 13:10:17;;;;;;;;;56.00;46.33;;;;;;;;5141665;27;8843;-73
2022/02/14 13:12:42;;;;;;;;;57.67;46.67;;;;;;;;5162419;27;13318;-73
2022/02/14 13:15:08;;;;;;;;;58.33;48.00;;;;;;;;5163154;27;13136;-72
2022/02/14 13:17:33;;;;;;;;;54.67;46.00;;;;;;;;5181696;27;11643;-73
2022/02/14 13:20:00;;;;;;;;;57.33;46.67;;;;;;;;5181037;27;11736;-73
2022/02/14 13:22:27;;;;;;;;;65.67;52.33;;;;;;;;5163128;27;12224;-72
2022/02/14 13:24:58;;;;;;;;;59.67;48.33;;;;;;;;5181406;27;13470;-73
2022/02/14 13:27:24;;;;;;;;;53.67;45.33;;;;;;;;5181018;27;10451;-73
2022/02/14 13:29:50;;;;;;;;;58.33;46.33;;;;;;;;5159780;27;10717;-73
2022/02/14 13:32:17;;;;;;;;;58.00;46.33;;;;;;;;5181536;27;10703;-72
2022/02/14 13:35:01;;;;;;;;;55.67;46.33;;;;;;;;5181115;27;8796;-70
2022/02/14 13:37:34;;;;;;;;;50.00;43.00;;;;;;;;5180594;27;9682;-71
2022/02/14 13:39:59;;;;;;;;;54.00;46.00;;;;;;;;5182173;27;11635;-72
2022/02/14 13:42:24;;;;;;;;;56.00;46.00;;;;;;;;5164127;27;10633;-74
2022/02/14 13:44:59;;;;;;;;;60.33;47.00;;;;;;;;5163743;27;8892;-71
2022/02/14 13:47:25;;;;;;;;;51.00;41.67;;;;;;;;5163414;27;12608;-71
2022/02/14 13:49:51;;;;;;;;;56.33;46.00;;;;;;;;5161914;27;16619;-70
2022/02/14 13:52:24;;;;;;;;;59.00;47.67;;;;;;;;5182042;27;11642;-69
2022/02/14 13:55:22;;;;;;;;;57.00;46.67;;;;;;;;5159009;27;11536;-70
2022/02/14 13:57:47;;;;;;;;;56.67;43.67;;;;;;;;5083715;28;10006;-70
2022/02/14 14:00:30;;;;;;;;;60.33;49.00;;;;;;;;5095847;28;10626;-70
2022/02/14 14:02:59;;;;;;;;;56.33;42.00;;;;;;;;5095412;28;13383;-69
2022/02/14 14:05:25;;;;;;;;;56.33;45.33;;;;;;;;5094752;28;10455;-69
2022/02/14 14:07:50;;;;;;;;;57.33;45.00;;;;;;;;5119887;27;9015;-70
2022/02/14 14:10:15;;;;;;;;;59.00;48.00;;;;;;;;5180201;27;11558;-69
2022/02/14 14:12:48;;;;;;;;;56.33;43.67;;;;;;;;5179879;27;10393;-70
2022/02/14 14:15:14;;;;;;;;;63.00;47.33;;;;;;;;5177901;27;12556;-69
2022/02/14 14:17:39;;;;;;;;;56.67;48.00;;;;;;;;5180009;27;13273;-70
2022/02/14 14:20:05;;;;;;;;;58.00;46.33;;;;;;;;5180227;27;13690;-71
2022/02/14 14:22:32;;;;;;;;;56.00;46.00;;;;;;;;5179988;27;11443;-72
2022/02/14 14:24:59;;;;;;;;;56.00;47.00;;;;;;;;5180329;27;11978;-71
2022/02/14 14:27:25;;;;;;;;;47.00;42.00;;;;;;;;5160518;27;8800;-71
2022/02/14 14:29:50;;;;;;;;;50.33;39.67;;;;;;;;5179693;27;10375;-69
2022/02/14 14:32:16;;;;;;;;;43.33;36.67;;;;;;;;5179422;27;14637;-70
2022/02/14 14:34:41;;;;;;;;;46.67;41.00;;;;;;;;5179216;27;10677;-70
2022/02/14 14:37:07;;;;;;;;;49.67;42.00;;;;;;;;5179573;27;12202;-71
2022/02/14 14:39:33;;;;;;;;;44.00;38.33;;;;;;;;5180206;27;8804;-70
2022/02/14 14:41:58;;;;;;;;;33.00;31.00;;;;;;;;5179715;27;12474;-69
2022/02/14 14:44:26;;;;;;;;;45.00;36.67;;;;;;;;5179829;27;13731;-70
2022/02/14 14:46:51;;;;;;;;;40.00;35.67;;;;;;;;5171506;27;14510;-70
2022/02/14 14:49:16;;;;;;;;;32.67;27.00;;;;;;;;5168085;27;11641;-71
2022/02/14 14:51:42;;;;;;;;;40.00;32.00;;;;;;;;5173887;27;13264;-70
2022/02/14 14:54:07;;;;;;;;;40.67;31.67;;;;;;;;5169763;27;12228;-70
2022/02/14 14:56:33;;;;;;;;;31.67;28.67;;;;;;;;5178192;27;10668;-72
2022/02/14 14:58:58;;;;;;;;;37.33;33.67;;;;;;;;5181467;27;10484;-72
2022/02/14 15:01:24;;;;;;;;;31.00;31.00;;;;;;;;5181672;27;12866;-74
2022/02/14 15:04:25;;;;;;;;;35.33;32.00;;;;;;;;5094413;27;1909543;-72
2022/02/14 15:06:51;;;;;;;;;31.50;30.50;;;;;;;;5144631;27;22592;-70
2022/02/14 15:09:16;;;;;;;;;34.25;30.75;;;;;;;;5144198;27;12528;-76
2022/02/14 15:11:42;;;;;;;;;26.25;24.25;;;;;;;;5134414;27;11699;-70
2022/02/14 15:14:07;;;;;;;;;33.50;26.75;;;;;;;;5145951;27;12204;-70
2022/02/14 15:16:33;;;;;;;;;26.25;22.00;;;;;;;;5143933;27;13504;-70
2022/02/14 15:18:58;;;;;;;;;29.25;26.50;;;;;;;;5146193;27;13250;-69
2022/02/14 15:21:23;;;;;;;;;29.25;24.50;;;;;;;;5145040;27;13147;-70
2022/02/14 15:23:49;;;;;;;;;24.25;18.25;;;;;;;;5126979;27;10425;-70
2022/02/14 15:26:15;;;;;;;;;29.00;25.50;;;;;;;;5146882;27;12378;-71
2022/02/14 15:28:40;;;;;;;;;30.75;25.00;;;;;;;;5144111;27;12385;-70
2022/02/14 15:31:05;;;;;;;;;27.75;26.00;;;;;;;;5145848;27;13292;-70
2022/02/14 15:33:31;;;;;;;;;25.75;21.75;;;;;;;;5145137;27;10537;-70
2022/02/14 15:35:56;;;;;;;;;29.00;23.00;;;;;;;;5152983;27;11399;-71
2022/02/14 15:38:21;;;;;;;;;29.25;26.75;;;;;;;;5142296;27;11631;-73
2022/02/14 15:40:47;;;;;;;;;28.25;25.75;;;;;;;;5138988;27;10924;-71
2022/02/14 15:43:12;;;;;;;;;34.50;27.75;;;;;;;;5156754;27;8921;-71
2022/02/14 15:45:37;;;;;;;;;29.50;26.75;;;;;;;;5156011;27;12399;-70
2022/02/14 15:48:04;;;;;;;;;24.50;23.25;;;;;;;;5156153;27;10357;-71
2022/02/14 15:50:29;;;;;;;;;27.00;24.75;;;;;;;;5156078;27;10432;-71
2022/02/14 15:52:55;;;;;;;;;23.75;23.00;;;;;;;;5155757;27;11565;-71
2022/02/14 15:55:21;;;;;;;;;20.00;20.00;;;;;;;;5155736;27;11413;-71
2022/02/14 15:57:46;;;;;;;;;23.00;22.00;;;;;;;;5155952;27;10346;-70
2022/02/14 16:00:12;;;;;;;;;22.25;21.50;;;;;;;;5137436;27;8915;-70
2022/02/14 16:02:37;;;;;;;;;29.00;26.25;;;;;;;;5155181;27;11355;-71
2022/02/14 16:05:03;;;;;;;;;31.50;24.00;;;;;;;;5137745;27;13862;-72
2022/02/14 16:07:28;;;;;;;;;23.25;22.50;;;;;;;;5155570;27;13519;-73
2022/02/14 16:09:54;;;;;;;;;23.00;20.75;;;;;;;;5154477;27;13521;-73
2022/02/14 16:12:19;;;;;;;;;22.25;21.50;;;;;;;;5144475;27;10351;-74
2022/02/14 16:30:15;;;;;;;;;19.00;16.00;;;;;;;;5605636;22;12343;-70
2022/02/14 16:32:40;;;;;;;;;15.00;10.00;;;;;;;;5049868;28;13852;-71
2022/02/14 16:35:06;;;;;;;;;10.25;8.50;;;;;;;;5048597;28;9572;-71
2022/02/14 16:37:32;;;;;;;;;12.25;8.75;;;;;;;;5050912;28;22127;-72
2022/02/14 16:39:57;;;;;;;;;12.75;12.75;;;;;;;;5047305;28;11521;-73
2022/02/14 16:42:23;;;;;;;;;10.50;9.00;;;;;;;;5047974;28;21700;-72
2022/02/14 16:44:49;;;;;;;;;11.50;11.50;;;;;;;;5047908;28;21489;-72
2022/02/14 16:47:14;;;;;;;;;10.25;8.75;;;;;;;;5058740;28;21380;-71
2022/02/14 16:49:54;;;;;;;;;14.00;12.50;;;;;;;;5079965;28;21576;-73
2022/02/14 16:52:21;;;;;;;;;12.50;8.00;;;;;;;;5079911;28;21482;-72
2022/02/14 16:54:46;;;;;;;;;11.75;9.50;;;;;;;;5077946;28;21839;-74
2022/02/14 16:57:12;;;;;;;;;10.50;9.25;;;;;;;;5060096;28;11511;-73
2022/02/14 16:59:37;;;;;;;;;10.50;10.50;;;;;;;;5058933;28;10832;-74
2022/02/14 17:02:02;;;;;;;;;10.50;9.50;;;;;;;;5063892;28;17422;-75
2022/02/14 17:04:28;;;;;;;;;9.50;7.00;;;;;;;;5077490;28;16420;-73
2022/02/14 17:06:53;;;;;;;;;10.00;10.00;;;;;;;;5057192;28;21301;-75
2022/02/14 17:09:18;;;;;;;;;13.25;12.00;;;;;;;;5056869;28;23168;-74
2022/02/14 17:11:46;;;;;;;;;11.50;9.75;;;;;;;;5053395;28;10855;-74
2022/02/14 17:14:12;;;;;;;;;13.50;10.50;;;;;;;;5057184;28;21527;-74
2022/02/14 17:16:37;;;;;;;;;11.50;10.00;;;;;;;;5056839;28;21567;-78
2022/02/14 17:19:02;;;;;;;;;10.50;10.50;;;;;;;;5063702;28;12834;-78
2022/02/14 17:21:28;;;;;;;;;11.00;9.75;;;;;;;;5061502;28;11638;-76
2022/02/14 17:23:53;;;;;;;;;10.75;8.75;;;;;;;;5058353;28;22642;-74
2022/02/14 17:26:18;;;;;;;;;12.00;10.00;;;;;;;;5057332;28;10550;-74
2022/02/14 17:28:44;;;;;;;;;12.75;10.00;;;;;;;;5058263;28;21688;-74
2022/02/14 17:31:09;;;;;;;;;10.50;9.50;;;;;;;;5057695;28;8838;-74
2022/02/14 17:33:35;;;;;;;;;15.50;10.50;;;;;;;;5058018;28;21404;-72
2022/02/14 17:36:00;;;;;;;;;13.75;10.00;;;;;;;;5057729;28;21625;-73
2022/02/14 17:38:25;;;;;;;;;16.50;13.00;;;;;;;;5057747;28;11375;-73
2022/02/14 17:40:53;;;;;;;;;16.00;15.00;;;;;;;;5057913;28;10653;-75
2022/02/14 17:43:18;;;;;;;;;16.25;14.50;;;;;;;;5057950;28;9855;-74
2022/02/14 17:45:44;;;;;;;;;12.50;12.50;;;;;;;;5058379;28;11526;-72
2022/02/14 17:48:09;;;;;;;;;10.50;10.50;;;;;;;;5058362;28;10912;-73
2022/02/14 17:50:34;;;;;;;;;15.00;10.50;;;;;;;;5057936;28;8787;-73
2022/02/14 17:53:01;;;;;;;;;14.25;11.00;;;;;;;;5058828;28;8978;-73
2022/02/14 17:55:27;;;;;;;;;14.00;10.50;;;;;;;;5060198;28;11463;-73
2022/02/14 17:57:52;;;;;;;;;14.25;10.25;;;;;;;;5066218;28;11605;-74
2022/02/14 18:00:17;;;;;;;;;15.50;13.00;;;;;;;;5061455;28;10267;-72
2022/02/14 18:02:42;;;;;;;;;13.50;10.25;;;;;;;;5065987;28;11655;-74
2022/02/14 18:05:08;;;;;;;;;10.75;9.50;;;;;;;;5054708;28;11436;-73
2022/02/14 18:07:41;;;;;;;;;13.50;9.50;;;;;;;;5055551;28;21566;-73
2022/02/14 18:10:06;;;;;;;;;17.50;16.50;;;;;;;;5060798;28;8986;-74
2022/02/14 18:12:32;;;;;;;;;9.00;9.00;;;;;;;;5059375;28;21599;-73
2022/02/14 18:14:57;;;;;;;;;12.00;8.50;;;;;;;;5056795;28;22164;-73
2022/02/14 18:17:22;;;;;;;;;10.25;9.25;;;;;;;;5056813;28;21722;-75
2022/02/14 18:19:47;;;;;;;;;9.50;9.50;;;;;;;;5060333;28;10297;-80
2022/02/14 18:22:16;;;;;;;;;7.50;7.50;;;;;;;;5053297;28;22147;-78
2022/02/14 18:24:42;;;;;;;;;10.75;10.75;;;;;;;;5055848;28;8829;-78
2022/02/14 18:27:07;;;;;;;;;12.00;10.00;;;;;;;;5056300;28;23391;-77
2022/02/14 18:29:36;;;;;;;;;11.00;7.25;;;;;;;;5055792;28;13022;-80
2022/02/14 18:32:05;;;;;;;;;9.00;7.25;;;;;;;;5056406;28;21702;-79
2022/02/14 18:34:30;;;;;;;;;9.25;8.50;;;;;;;;5056552;28;16324;-82
2022/02/14 18:36:56;;;;;;;;;12.00;7.00;;;;;;;;5056235;28;11530;-75
2022/02/14 18:39:21;;;;;;;;;7.50;7.50;;;;;;;;5056510;28;21370;-75
2022/02/14 18:41:48;;;;;;;;;8.50;6.00;;;;;;;;5056447;28;21547;-77
2022/02/14 18:44:13;;;;;;;;;8.75;8.75;;;;;;;;5056001;28;13753;-77
2022/02/14 18:46:42;;;;;;;;;13.25;12.75;;;;;;;;5057427;28;11590;-77
2022/02/14 18:49:07;;;;;;;;;17.25;14.00;;;;;;;;5056303;28;22958;-77
2022/02/14 18:51:32;;;;;;;;;13.50;13.00;;;;;;;;5056138;28;11781;-77
2022/02/14 18:53:58;;;;;;;;;20.25;16.75;;;;;;;;5056823;28;10883;-76
2022/02/14 18:56:24;;;;;;;;;16.00;15.25;;;;;;;;5057946;28;13651;-80
2022/02/14 18:58:49;;;;;;;;;16.00;13.75;;;;;;;;5058066;28;12394;-79
2022/02/14 19:01:14;;;;;;;;;18.25;14.00;;;;;;;;5057533;28;9574;-80
2022/02/14 19:03:40;;;;;;;;;20.00;15.75;;;;;;;;5058437;28;11883;-80
2022/02/14 19:06:05;;;;;;;;;19.00;14.75;;;;;;;;5060805;28;13409;-80
2022/02/14 19:08:30;;;;;;;;;19.75;18.00;;;;;;;;5061863;28;10665;-79
2022/02/14 19:10:55;;;;;;;;;25.50;22.25;;;;;;;;5051746;28;10335;-77